Latest Weather Observations for St Kilda Harbour RMYS

IDV60801

Issued at 6:35 am EST Tuesday 29 July 2014 (issued every 30 minutes, with the page automatically refreshed every 10 minutes)

About weather observations | Map of weather stations | Latest weather observations for VIC | Other Formats
Station Details ID: 086220 Name: ST KILDA HARBOUR - RMYS Lat: -37.86 Lon: 144.96 Height: 6.4 m
Data from the previous 72 hours. | See also: Recent months for locations in Victoria
Date/Time
EST
Temp
°C
App
Temp
°C
Dew
Point
Rel
Hum
%
Delta-T
°C
Wind Press
QNH
hPa
Press
MSL
hPa
Rain
since 9 am
mm
Dir
 
Spd
km/h
Gust
km/h
Spd
kts
Gust
kts
29/06:30am - - - - - N 28 41 15 22 - - -
29/06:00am - - - - - N 26 39 14 21 - - -
29/05:30am - - - - - N 28 43 15 23 - - -
29/05:10am - - - - - N 30 48 16 26 - - -
29/05:00am - - - - - N 32 44 17 24 - - -
29/04:30am - - - - - N 28 41 15 22 - - -
29/04:00am - - - - - N 24 35 13 19 - - -
29/03:30am - - - - - N 15 24 8 13 - - -
29/03:00am - - - - - NNE 26 39 14 21 - - -
29/02:30am - - - - - N 24 33 13 18 - - -
29/02:00am - - - - - N 22 39 12 21 - - -
29/01:30am - - - - - N 22 33 12 18 - - -
29/01:00am - - - - - N 26 37 14 20 - - -
29/12:30am - - - - - N 26 43 14 23 - - -
29/12:00am - - - - - N 26 35 14 19 - - -
 
Date/Time
EST
Temp
°C
App
Temp
°C
Dew
Point
Rel
Hum
%
Delta-T
°C
Wind Press
QNH
hPa
Press
MSL
hPa
Rain
since 9 am
mm
Dir
 
Spd
km/h
Gust
km/h
Spd
kts
Gust
kts
28/11:30pm - - - - - N 24 33 13 18 - - -
28/11:00pm - - - - - N 24 33 13 18 - - -
28/10:30pm - - - - - N 24 32 13 17 - - -
28/10:00pm - - - - - N 22 33 12 18 - - -
28/09:30pm - - - - - N 30 43 16 23 - - -
28/09:00pm - - - - - N 26 35 14 19 - - -
28/08:30pm - - - - - N 32 43 17 23 - - -
28/08:00pm - - - - - N 30 43 16 23 - - -
28/07:30pm - - - - - N 24 32 13 17 - - -
28/07:00pm - - - - - NNE 20 37 11 20 - - -
28/06:32pm - - - - - N 28 48 15 26 - - -
28/06:30pm - - - - - N 30 46 16 25 - - -
28/06:16pm - - - - - N 35 57 19 31 - - -
28/06:00pm - - - - - N 35 48 19 26 - - -
28/05:30pm - - - - - N 32 44 17 24 - - -
28/05:00pm - - - - - N 26 37 14 20 - - -
28/04:30pm - - - - - N 28 41 15 22 - - -
28/04:00pm - - - - - N 32 46 17 25 - - -
28/03:30pm - - - - - N 37 57 20 31 - - -
28/03:10pm - - - - - N 32 52 17 28 - - -
28/03:00pm - - - - - N 32 50 17 27 - - -
28/02:36pm - - - - - N 37 57 20 31 - - -
28/02:30pm - - - - - N 35 50 19 27 - - -
28/02:18pm - - - - - N 33 52 18 28 - - -
28/02:00pm - - - - - N 37 52 20 28 - - -
28/01:52pm - - - - - N 33 52 18 28 - - -
28/01:30pm - - - - - N 35 48 19 26 - - -
28/01:00pm - - - - - NNW 35 44 19 24 - - -
28/12:30pm - - - - - NNW 33 44 18 24 - - -
28/12:00pm - - - - - N 28 37 15 20 - - -
28/11:30am - - - - - N 37 46 20 25 - - -
28/11:00am - - - - - N 28 43 15 23 - - -
28/10:30am - - - - - N 33 44 18 24 - - -
28/10:00am - - - - - N 33 44 18 24 - - -
28/09:30am - - - - - N 33 48 18 26 - - -
28/09:00am - - - - - N 32 43 17 23 - - -
28/08:30am - - - - - N 35 48 19 26 - - -
28/08:00am - - - - - N 32 46 17 25 - - -
28/07:30am - - - - - N 30 43 16 23 - - -
28/07:00am - - - - - N 28 37 15 20 - - -
28/06:30am - - - - - N 28 44 15 24 - - -
28/06:00am - - - - - N 30 43 16 23 - - -
28/05:30am - - - - - N 20 30 11 16 - - -
28/05:00am - - - - - N 19 28 10 15 - - -
28/04:30am - - - - - N 22 32 12 17 - - -
28/04:00am - - - - - N 28 39 15 21 - - -
28/03:43am - - - - - N 28 48 15 26 - - -
28/03:30am - - - - - N 30 41 16 22 - - -
28/03:00am - - - - - N 33 54 18 29 - - -
28/02:30am - - - - - N 30 50 16 27 - - -
28/02:25am - - - - - N 32 50 17 27 - - -
28/02:00am - - - - - N 30 43 16 23 - - -
28/01:30am - - - - - N 35 50 19 27 - - -
28/01:03am - - - - - N 33 52 18 28 - - -
28/01:00am - - - - - N 35 52 19 28 - - -
28/12:30am - - - - - N 35 57 19 31 - - -
28/12:15am - - - - - N 35 54 19 29 - - -
28/12:00am - - - - - N 33 50 18 27 - - -
 
Date/Time
EST
Temp
°C
App
Temp
°C
Dew
Point
Rel
Hum
%
Delta-T
°C
Wind Press
QNH
hPa
Press
MSL
hPa
Rain
since 9 am
mm
Dir
 
Spd
km/h
Gust
km/h
Spd
kts
Gust
kts
27/11:30pm - - - - - N 33 46 18 25 - - -
27/11:00pm - - - - - N 32 50 17 27 - - -
27/10:59pm - - - - - N 30 50 16 27 - - -
27/10:30pm - - - - - N 30 44 16 24 - - -
27/10:00pm - - - - - N 24 35 13 19 - - -
27/09:30pm - - - - - N 22 32 12 17 - - -
27/09:00pm - - - - - N 19 28 10 15 - - -
27/08:30pm - - - - - N 15 26 8 14 - - -
27/08:00pm - - - - - N 19 30 10 16 - - -
27/07:30pm - - - - - N 19 26 10 14 - - -
27/07:00pm - - - - - N 19 28 10 15 - - -
27/06:30pm - - - - - N 24 33 13 18 - - -
27/06:00pm - - - - - N 13 20 7 11 - - -
27/05:30pm - - - - - N 22 30 12 16 - - -
27/05:00pm - - - - - NNW 19 30 10 16 - - -
27/04:30pm - - - - - NNW 20 32 11 17 - - -
27/04:00pm - - - - - NNW 17 26 9 14 - - -
27/03:30pm - - - - - N 19 26 10 14 - - -
27/03:00pm - - - - - N 19 26 10 14 - - -
27/02:30pm - - - - - N 20 30 11 16 - - -
27/02:00pm - - - - - N 22 32 12 17 - - -
27/01:30pm - - - - - NNW 26 35 14 19 - - -
27/01:00pm - - - - - NNW 32 44 17 24 - - -
27/12:30pm - - - - - N 20 26 11 14 - - -
27/12:00pm - - - - - NNW 24 37 13 20 - - -
27/11:30am - - - - - N 24 37 13 20 - - -
27/11:00am - - - - - N 19 30 10 16 - - -
27/10:30am - - - - - N 22 26 12 14 - - -
27/10:00am - - - - - NNW 19 26 10 14 - - -
27/09:30am - - - - - N 17 28 9 15 - - -
27/09:00am - - - - - NNE 13 20 7 11 - - -
27/08:30am - - - - - NNE 11 15 6 8 - - -
27/08:00am - - - - - NNE 11 15 6 8 - - -
27/07:30am - - - - - NNE 9 13 5 7 - - -
27/07:00am - - - - - NNE 6 9 3 5 - - -
27/06:30am - - - - - N 4 6 2 3 - - -
27/06:00am - - - - - N 4 6 2 3 - - -
27/05:30am - - - - - NNE 6 7 3 4 - - -
27/05:00am - - - - - NNE 4 6 2 3 - - -
27/04:30am - - - - - NNE 6 6 3 3 - - -
27/04:00am - - - - - N 6 7 3 4 - - -
27/03:30am - - - - - NNE 6 7 3 4 - - -
27/03:00am - - - - - N 7 9 4 5 - - -
27/02:30am - - - - - N 7 9 4 5 - - -
27/02:00am - - - - - NNW 9 13 5 7 - - -
27/01:30am - - - - - NW 11 13 6 7 - - -
27/01:00am - - - - - NW 11 15 6 8 - - -
27/12:30am - - - - - WNW 13 17 7 9 - - -
27/12:00am - - - - - NW 11 15 6 8 - - -
 
Date/Time
EST
Temp
°C
App
Temp
°C
Dew
Point
Rel
Hum
%
Delta-T
°C
Wind Press
QNH
hPa
Press
MSL
hPa
Rain
since 9 am
mm
Dir
 
Spd
km/h
Gust
km/h
Spd
kts
Gust
kts
26/11:30pm - - - - - NNW 7 13 4 7 - - -
26/11:00pm - - - - - W 17 20 9 11 - - -
26/10:30pm - - - - - W 15 19 8 10 - - -
26/10:00pm - - - - - W 17 20 9 11 - - -
26/09:30pm - - - - - W 20 24 11 13 - - -
26/09:00pm - - - - - W 24 30 13 16 - - -
26/08:30pm - - - - - W 22 30 12 16 - - -
26/08:00pm - - - - - W 20 24 11 13 - - -
26/07:30pm - - - - - W 20 28 11 15 - - -
26/07:00pm - - - - - W 15 20 8 11 - - -
26/06:30pm - - - - - W 19 20 10 11 - - -
26/06:00pm - - - - - W 17 24 9 13 - - -
26/05:30pm - - - - - W 17 20 9 11 - - -
26/05:00pm - - - - - WSW 26 30 14 16 - - -
26/04:30pm - - - - - WSW 24 32 13 17 - - -
26/04:00pm - - - - - SW 35 43 19 23 - - -
26/03:30pm - - - - - WSW 24 33 13 18 - - -
26/03:00pm - - - - - W 17 22 9 12 - - -
26/02:30pm - - - - - W 22 30 12 16 - - -
26/02:00pm - - - - - W 20 26 11 14 - - -
26/01:30pm - - - - - WSW 28 39 15 21 - - -
26/01:00pm - - - - - W 28 35 15 19 - - -
26/12:30pm - - - - - W 20 24 11 13 - - -
26/12:00pm - - - - - W 20 32 11 17 - - -
26/11:30am - - - - - W 13 17 7 9 - - -
26/11:00am - - - - - W 22 28 12 15 - - -
26/10:30am - - - - - WNW 17 22 9 12 - - -
26/10:00am - - - - - WNW 19 26 10 14 - - -
26/09:30am - - - - - WNW 22 30 12 16 - - -
26/09:00am - - - - - WNW 17 22 9 12 - - -
26/08:30am - - - - - NW 11 17 6 9 - - -
26/08:00am - - - - - NW 17 19 9 10 - - -
26/07:30am - - - - - NW 17 22 9 12 - - -
26/07:00am - - - - - NW 19 26 10 14 - - -

Other Formats:

Comma delimited format used in spreadsheet applications
http://www.bom.gov.au/fwo/IDV60801/IDV60801.95864.axf

JavaScript Object Notation format (JSON) in row-major order
http://www.bom.gov.au/fwo/IDV60801/IDV60801.95864.json